createdAt,value
2022-12-05T00:00:49.934Z,48.05
2022-12-05T00:15:51.840Z,47.70
2022-12-05T00:30:53.733Z,47.47
2022-12-05T00:45:55.671Z,41.60
2022-12-05T01:00:57.613Z,43.70
2022-12-05T01:15:59.763Z,45.75
2022-12-05T01:31:09.316Z,44.85
2022-12-05T01:46:11.287Z,44.78
2022-12-05T02:01:15.140Z,44.35
2022-12-05T02:16:23.160Z,46.22
2022-12-05T02:31:51.369Z,39.80
2022-12-05T02:46:56.086Z,38.80
2022-12-05T03:01:58.015Z,37.40
2022-12-05T03:17:04.954Z,35.20
2022-12-05T03:32:19.896Z,41.67
2022-12-05T03:47:48.037Z,38.28
2022-12-05T04:03:11.455Z,38.45
2022-12-05T04:18:13.455Z,35.42
2022-12-05T04:33:29.448Z,36.38
2022-12-05T04:48:32.906Z,35.90
2022-12-05T05:04:02.859Z,33.08
2022-12-05T05:19:06.749Z,34.22
2022-12-05T05:34:09.839Z,32.92
2022-12-05T05:49:11.972Z,31.95
2022-12-05T06:04:13.852Z,35.38
2022-12-05T06:19:15.741Z,35.13
2022-12-05T06:34:17.606Z,33.67
2022-12-05T06:49:19.660Z,35.13
2022-12-05T07:04:26.232Z,33.50
2022-12-05T07:19:28.082Z,32.70
2022-12-05T07:34:30.003Z,33.92
2022-12-05T07:49:31.853Z,33.50
2022-12-05T08:04:33.810Z,33.33
2022-12-05T08:19:35.739Z,34.50
2022-12-05T08:34:37.590Z,36.25
2022-12-05T08:49:39.448Z,37.17
2022-12-05T09:04:41.316Z,37.92
2022-12-05T09:19:43.337Z,38.97
2022-12-05T09:34:45.293Z,39.95
2022-12-05T09:49:57.574Z,40.88
2022-12-05T10:05:29.474Z,43.25
2022-12-05T10:20:48.742Z,42.45
2022-12-05T10:35:53.958Z,42.38
2022-12-05T10:50:58.395Z,41.20
2022-12-05T11:06:22.564Z,47.13
2022-12-05T11:21:25.589Z,46.17
2022-12-05T11:36:42.564Z,47.75
2022-12-05T11:52:13.120Z,51.88
2022-12-05T12:07:14.933Z,49.58
2022-12-05T12:22:38.752Z,48.90
2022-12-05T12:38:07.809Z,47.20
2022-12-05T12:53:18.317Z,48.13
2022-12-05T13:08:48.904Z,48.60
2022-12-05T13:23:55.964Z,49.35
2022-12-05T13:39:25.316Z,47.42
2022-12-05T13:54:31.083Z,46.58
2022-12-05T14:09:54.018Z,50.53
2022-12-05T14:25:09.369Z,52.08
2022-12-05T14:40:35.038Z,49.40
2022-12-05T14:55:37.209Z,47.13
2022-12-05T15:10:39.942Z,45.72
2022-12-05T15:25:43.251Z,48.60
2022-12-05T15:40:48.760Z,47.53
2022-12-05T15:55:55.819Z,52.25
2022-12-05T16:10:57.828Z,52.42
2022-12-05T16:26:21.100Z,46.53
2022-12-05T16:41:31.990Z,47.20
2022-12-05T16:56:34.237Z,36.88
2022-12-05T17:11:38.615Z,40.88
2022-12-05T17:26:40.479Z,46.50
2022-12-05T17:41:42.458Z,33.33
2022-12-05T17:56:44.426Z,30.33
2022-12-05T18:11:46.269Z,37.20
2022-12-05T18:26:48.214Z,31.27
2022-12-05T18:41:50.073Z,29.20
2022-12-05T18:56:52.948Z,27.40
2022-12-05T19:11:59.622Z,24.40
2022-12-05T19:27:01.672Z,27.88
2022-12-05T19:42:03.705Z,31.17
2022-12-05T19:57:05.766Z,41.10
2022-12-05T20:12:07.803Z,33.08
2022-12-05T20:27:09.789Z,51.85
2022-12-05T20:42:11.721Z,39.67
2022-12-05T20:57:13.626Z,35.33
2022-12-05T21:12:15.618Z,31.23
2022-12-05T21:27:17.474Z,29.40
2022-12-05T21:42:19.352Z,25.45
2022-12-05T21:57:21.335Z,18.95
2022-12-05T22:12:23.193Z,20.10
2022-12-05T22:27:25.075Z,27.35
2022-12-05T22:42:27.610Z,26.50
2022-12-05T22:57:30.196Z,21.38
2022-12-05T23:12:32.068Z,18.60
2022-12-05T23:27:34.696Z,19.73
2022-12-05T23:42:36.568Z,21.23
2022-12-05T23:57:38.465Z,22.15
